Terminal Aerodrome Forecast
Issued by NWS

Home | Current Version | Previous Version | Text Only | Print | Product List | Glossary On
Versions: 1 2 3 4 5 6 7 8 9 10 11 12 13 14 15 16 17
000
FTUS46 KSEW 272300
TAFBFI
TAF
KBFI 272329Z 2800/2824 17004KT 3SM -DZ BR SCT012 OVC018
      TEMPO 2800/2804 P6SM NSW BKN012 OVC018
     FM280600 16004KT 5SM BR OVC008
     FM282000 33003KT P6SM BKN250=

USA.gov is the U.S. government's official web portal to all federal, state and local government web resources and services.